Hatsu Ethic — VQFS4 — position and weather

sailwx.info

Track history (hours):
 
Tides and Currents Weather Stations Pressure Air Temp Water Temp Dewpoint Dewpoint Depression Visibility Wind Speed Wind Dir Waves Ship Positions

Hatsu Ethic

Last reported at 2016-Feb-11 15:33 UTC. Time now 2016-Feb-12 09:55 UTC.
Position N 48°31' W 126°30'.

Type: Ship (hazmat cat D). MMSI: 235603000.

Date/timePositionNaut miles runAvg speedWind from/ knotsBaromVisibWave heightAir tempDewpointWater temp
2016-Feb-11 15:33N 48°31' W 126°30'1918.5
2016-Feb-11 14:33N 48°31' W 126°02'1918.8
2016-Feb-11 13:33N 48°32' W 125°34'1918.5
2016-Feb-11 12:32N 48°31' W 125°06'2518.1
2016-Feb-11 11:10N 48°27' W 124°29'1318.2
2016-Feb-11 10:27N 48°22' W 124°11'1618.1
2016-Feb-11 09:32N 48°17' W 123°47'1717.0
2016-Feb-11 08:33N 48°11' W 123°24'1514.6
2016-Feb-11 07:33N 48°13' W 123°02'1919.4
2016-Feb-11 06:33N 48°02' W 122°38'1919.3
2016-Feb-11 05:34N 47°45' W 122°26'1515.5
2016-Feb-11 04:34N 47°29' W 122°25'1111.4
2016-Feb-11 03:34N 47°18' W 122°27'4 0.4
2016-Feb-10 18:24N 47°15' W 122°23'0 0.0
2016-Feb-10 16:30N 47°15' W 122°23'0 0.0
2016-Feb-10 14:18N 47°15' W 122°23'0 0.0
2016-Feb-10 03:18N 47°15' W 122°23'0 0.0
2016-Feb-09 16:18N 47°15' W 122°23'0 0.0
2016-Feb-09 12:22N 47°15' W 122°23'1 1.3
2016-Feb-09 11:32N 47°16' W 122°24'5 5.0
2016-Feb-09 10:33N 47°21' W 122°26'1212.4
2016-Feb-09 09:33N 47°33' W 122°27'1615.6
2016-Feb-09 08:33N 47°49' W 122°28'1817.1
2016-Feb-09 07:32N 48°04' W 122°40'1717.5
2016-Feb-09 06:33N 48°12' W 123°03'1414.1
2016-Feb-09 05:33N 48°10' W 123°24'1312.6
2016-Feb-09 04:33N 48°23' W 123°24'1413.7
2016-Feb-09 03:33N 48°35' W 123°14'1716.7
2016-Feb-09 02:33N 48°50' W 123°02'2020.3
2016-Feb-09 01:33N 49°04' W 123°24'1716.6
2016-Feb-09 00:33N 49°19' W 123°14'7 6.6
2016-Feb-08 23:33N 49°17' W 123°05'0 0.0
2016-Feb-08 22:33N 49°17' W 123°05'0 0.0
2016-Feb-08 21:33N 49°17' W 123°05'0 0.0
2016-Feb-08 20:33N 49°17' W 123°05'0 0.0
2016-Feb-08 19:33N 49°17' W 123°05'0 0.0
2016-Feb-08 18:33N 49°17' W 123°05'0 0.0
2016-Feb-08 17:33N 49°17' W 123°05'0 0.0
2016-Feb-08 16:33N 49°17' W 123°05'0 0.0
2016-Feb-08 15:33N 49°17' W 123°05'0 0.0
2016-Feb-08 14:33N 49°17' W 123°05'0 0.0
2016-Feb-08 13:33N 49°17' W 123°05'0 0.0
2016-Feb-08 12:33N 49°17' W 123°05'0 0.0
2016-Feb-08 11:33N 49°17' W 123°05'0 0.0
2016-Feb-08 10:33N 49°17' W 123°05'0 0.0
2016-Feb-08 09:33N 49°17' W 123°05'0 0.0
2016-Feb-08 08:33N 49°17' W 123°05'0 0.0
2016-Feb-08 07:33N 49°17' W 123°05'0 0.0
2016-Feb-08 06:33N 49°17' W 123°05'0 0.0
2016-Feb-08 05:33N 49°17' W 123°05'0 0.0
2016-Feb-08 04:33N 49°17' W 123°05'0 0.0
2016-Feb-08 03:33N 49°17' W 123°05'0 0.0
2016-Feb-08 02:33N 49°17' W 123°05'0 0.0
2016-Feb-08 01:33N 49°17' W 123°05'0 0.0
2016-Feb-08 00:33N 49°17' W 123°05'0 0.0
2016-Feb-07 23:33N 49°17' W 123°05'0 0.0
2016-Feb-07 22:33N 49°17' W 123°05'0 0.0
2016-Feb-07 21:33N 49°17' W 123°05'0 0.0
2016-Feb-07 20:33N 49°17' W 123°05'0 0.0
2016-Feb-07 19:33N 49°17' W 123°05'0 0.0
2016-Feb-07 18:33N 49°17' W 123°05'0 0.0
2016-Feb-07 17:33N 49°17' W 123°05'0 0.0
2016-Feb-07 16:33N 49°17' W 123°05'0 0.0
2016-Feb-07 15:33N 49°17' W 123°05'0 0.0
2016-Feb-07 14:33N 49°17' W 123°05'0 0.0
2016-Feb-07 13:33N 49°17' W 123°05'0 0.0
2016-Feb-07 12:33N 49°17' W 123°05'0 0.0
2016-Feb-07 11:33N 49°17' W 123°05'0 0.0
2016-Feb-07 10:33N 49°17' W 123°05'0 0.0
2016-Feb-07 09:33N 49°17' W 123°05'0 0.0
2016-Feb-07 08:33N 49°17' W 123°05'0 0.0
2016-Feb-07 07:34N 49°17' W 123°05'2 2.3
2016-Feb-07 06:34N 49°19' W 123°08'1212.3
2016-Feb-07 05:33N 49°09' W 123°20'1717.5
2016-Feb-07 04:33N 48°55' W 123°05'1313.0
2016-Feb-07 03:33N 48°43' W 123°12'1515.2
2016-Feb-07 02:33N 48°28' W 123°10'1211.8
2016-Feb-07 01:33N 48°20' W 123°24'1010.5
2016-Feb-07 00:33N 48°13' W 123°36'1817.4
2016-Feb-06 23:32N 48°16' W 124°02'4018.8
2016-Feb-06 21:25N 48°29' W 124°58'1718.9
2016-Feb-06 20:33N 48°29' W 125°23'1918.7
2016-Feb-06 19:33N 48°29' W 125°51'1918.7
2016-Feb-06 18:33N 48°29' W 126°20'  
Track history (hours):
 
Tides and Currents Weather Stations Pressure Air Temp Water Temp Dewpoint Dewpoint Depression Visibility Wind Speed Wind Dir Waves Ship Positions

Hatsu Ethic

Last reported at 2016-Feb-11 15:33 UTC. Time now 2016-Feb-12 09:55 UTC.
Position N 48°31' W 126°30'.

Type: Ship (hazmat cat D). MMSI: 235603000.

Date/timePositionNaut miles runAvg speedWind from/ knotsBaromVisibWave heightAir tempDewpointWater temp
2016-Feb-11 15:33N 48°31' W 126°30'1918.5
2016-Feb-11 14:33N 48°31' W 126°02'1918.8
2016-Feb-11 13:33N 48°32' W 125°34'1918.5
2016-Feb-11 12:32N 48°31' W 125°06'2518.1
2016-Feb-11 11:10N 48°27' W 124°29'1318.2
2016-Feb-11 10:27N 48°22' W 124°11'1618.1
2016-Feb-11 09:32N 48°17' W 123°47'1717.0
2016-Feb-11 08:33N 48°11' W 123°24'1514.6
2016-Feb-11 07:33N 48°13' W 123°02'1919.4
2016-Feb-11 06:33N 48°02' W 122°38'1919.3
2016-Feb-11 05:34N 47°45' W 122°26'1515.5
2016-Feb-11 04:34N 47°29' W 122°25'1111.4
2016-Feb-11 03:34N 47°18' W 122°27'4 0.4
2016-Feb-10 18:24N 47°15' W 122°23'0 0.0
2016-Feb-10 16:30N 47°15' W 122°23'0 0.0
2016-Feb-10 14:18N 47°15' W 122°23'0 0.0
2016-Feb-10 03:18N 47°15' W 122°23'0 0.0
2016-Feb-09 16:18N 47°15' W 122°23'0 0.0
2016-Feb-09 12:22N 47°15' W 122°23'1 1.3
2016-Feb-09 11:32N 47°16' W 122°24'5 5.0
2016-Feb-09 10:33N 47°21' W 122°26'1212.4
2016-Feb-09 09:33N 47°33' W 122°27'1615.6
2016-Feb-09 08:33N 47°49' W 122°28'1817.1
2016-Feb-09 07:32N 48°04' W 122°40'1717.5
2016-Feb-09 06:33N 48°12' W 123°03'1414.1
2016-Feb-09 05:33N 48°10' W 123°24'1312.6
2016-Feb-09 04:33N 48°23' W 123°24'1413.7
2016-Feb-09 03:33N 48°35' W 123°14'1716.7
2016-Feb-09 02:33N 48°50' W 123°02'2020.3
2016-Feb-09 01:33N 49°04' W 123°24'1716.6
2016-Feb-09 00:33N 49°19' W 123°14'7 6.6
2016-Feb-08 23:33N 49°17' W 123°05'0 0.0
2016-Feb-08 22:33N 49°17' W 123°05'0 0.0
2016-Feb-08 21:33N 49°17' W 123°05'0 0.0
2016-Feb-08 20:33N 49°17' W 123°05'0 0.0
2016-Feb-08 19:33N 49°17' W 123°05'0 0.0
2016-Feb-08 18:33N 49°17' W 123°05'0 0.0
2016-Feb-08 17:33N 49°17' W 123°05'0 0.0
2016-Feb-08 16:33N 49°17' W 123°05'0 0.0
2016-Feb-08 15:33N 49°17' W 123°05'0 0.0
2016-Feb-08 14:33N 49°17' W 123°05'0 0.0
2016-Feb-08 13:33N 49°17' W 123°05'0 0.0
2016-Feb-08 12:33N 49°17' W 123°05'0 0.0
2016-Feb-08 11:33N 49°17' W 123°05'0 0.0
2016-Feb-08 10:33N 49°17' W 123°05'0 0.0
2016-Feb-08 09:33N 49°17' W 123°05'0 0.0
2016-Feb-08 08:33N 49°17' W 123°05'0 0.0
2016-Feb-08 07:33N 49°17' W 123°05'0 0.0
2016-Feb-08 06:33N 49°17' W 123°05'0 0.0
2016-Feb-08 05:33N 49°17' W 123°05'0 0.0
2016-Feb-08 04:33N 49°17' W 123°05'0 0.0
2016-Feb-08 03:33N 49°17' W 123°05'0 0.0
2016-Feb-08 02:33N 49°17' W 123°05'0 0.0
2016-Feb-08 01:33N 49°17' W 123°05'0 0.0
2016-Feb-08 00:33N 49°17' W 123°05'0 0.0
2016-Feb-07 23:33N 49°17' W 123°05'0 0.0
2016-Feb-07 22:33N 49°17' W 123°05'0 0.0
2016-Feb-07 21:33N 49°17' W 123°05'0 0.0
2016-Feb-07 20:33N 49°17' W 123°05'0 0.0
2016-Feb-07 19:33N 49°17' W 123°05'0 0.0
2016-Feb-07 18:33N 49°17' W 123°05'0 0.0
2016-Feb-07 17:33N 49°17' W 123°05'0 0.0
2016-Feb-07 16:33N 49°17' W 123°05'0 0.0
2016-Feb-07 15:33N 49°17' W 123°05'0 0.0
2016-Feb-07 14:33N 49°17' W 123°05'0 0.0
2016-Feb-07 13:33N 49°17' W 123°05'0 0.0
2016-Feb-07 12:33N 49°17' W 123°05'0 0.0
2016-Feb-07 11:33N 49°17' W 123°05'0 0.0
2016-Feb-07 10:33N 49°17' W 123°05'0 0.0
2016-Feb-07 09:33N 49°17' W 123°05'0 0.0
2016-Feb-07 08:33N 49°17' W 123°05'0 0.0
2016-Feb-07 07:34N 49°17' W 123°05'2 2.3
2016-Feb-07 06:34N 49°19' W 123°08'1212.3
2016-Feb-07 05:33N 49°09' W 123°20'1717.5
2016-Feb-07 04:33N 48°55' W 123°05'1313.0
2016-Feb-07 03:33N 48°43' W 123°12'1515.2
2016-Feb-07 02:33N 48°28' W 123°10'1211.8
2016-Feb-07 01:33N 48°20' W 123°24'1010.5
2016-Feb-07 00:33N 48°13' W 123°36'1817.4
2016-Feb-06 23:32N 48°16' W 124°02'4018.8
2016-Feb-06 21:25N 48°29' W 124°58'1718.9
2016-Feb-06 20:33N 48°29' W 125°23'1918.7
2016-Feb-06 19:33N 48°29' W 125°51'1918.7
2016-Feb-06 18:33N 48°29' W 126°20'  

Dump ship's entire track history